Time;durP1;ratioP1;P1;durP2;ratioP2;P2;SDS_P1;SDS_P2;PMS_P1;PMS_P2;Temp;Humidity;BMP_temperature;BMP_pressure;BME280_temperature;BME280_humidity;BME280_pressure;Samples;Min_cycle;Max_cycle;Signal;HPM_P1;HPM_P2
2020/12/30 00:00:27;;;;;;;18.13;10.87;;;4.70;56.30;;;;;;5030367;28;20509;-72
2020/12/30 00:02:52;;;;;;;18.13;9.98;;;4.70;56.40;;;;;;5029917;28;20445;-71
2020/12/30 00:05:18;;;;;;;18.85;10.45;;;4.70;56.30;;;;;;5011424;28;20381;-72
2020/12/30 00:07:44;;;;;;;15.90;10.10;;;4.80;55.80;;;;;;5011391;28;20404;-72
2020/12/30 00:10:12;;;;;;;17.07;9.23;;;4.80;56.30;;;;;;5010742;28;20413;-73
2020/12/30 00:12:39;;;;;;;15.40;10.10;;;4.80;56.20;;;;;;5003128;28;20399;-71
2020/12/30 00:15:06;;;;;;;19.05;10.57;;;4.80;56.20;;;;;;4993051;28;20484;-73
2020/12/30 00:17:32;;;;;;;14.88;9.50;;;4.70;56.50;;;;;;5011342;28;20400;-71
2020/12/30 00:19:57;;;;;;;20.58;10.65;;;4.70;57.30;;;;;;5010490;28;20408;-73
2020/12/30 00:22:23;;;;;;;16.48;11.23;;;4.70;57.30;;;;;;5011085;28;20595;-75
2020/12/30 00:24:49;;;;;;;17.90;10.20;;;4.70;57.40;;;;;;5010999;28;20393;-72
2020/12/30 00:27:14;;;;;;;18.35;10.13;;;4.80;57.30;;;;;;5010700;28;20450;-72
2020/12/30 00:29:40;;;;;;;14.03;9.30;;;4.90;56.70;;;;;;5010511;28;20960;-72
2020/12/30 00:32:10;;;;;;;15.37;10.20;;;5.00;56.70;;;;;;5010370;28;20395;-72
2020/12/30 00:34:37;;;;;;;15.50;8.95;;;5.00;56.30;;;;;;5010833;28;20436;-72
2020/12/30 00:37:02;;;;;;;16.58;9.52;;;4.90;56.90;;;;;;5010733;28;20520;-72
2020/12/30 00:39:28;;;;;;;14.77;9.87;;;4.90;57.80;;;;;;5010326;28;20818;-71
2020/12/30 00:41:56;;;;;;;17.87;9.97;;;4.90;57.80;;;;;;5011029;28;20392;-72
2020/12/30 00:44:21;;;;;;;13.82;8.90;;;4.90;58.00;;;;;;5010650;28;20527;-71
2020/12/30 00:46:57;;;;;;;15.38;10.15;;;4.90;58.60;;;;;;5010909;28;20877;-72
2020/12/30 00:49:24;;;;;;;18.85;11.38;;;4.80;59.00;;;;;;5010454;28;20389;-72
2020/12/30 00:51:54;;;;;;;20.08;10.77;;;4.80;59.30;;;;;;5010539;28;20485;-71
2020/12/30 00:54:20;;;;;;;16.23;10.13;;;4.80;59.40;;;;;;5010740;28;20389;-72
2020/12/30 00:56:47;;;;;;;14.68;9.80;;;4.80;60.00;;;;;;5010769;28;20420;-72
2020/12/30 00:59:13;;;;;;;18.77;10.82;;;4.80;60.10;;;;;;5010292;28;20377;-72
2020/12/30 01:01:38;;;;;;;15.00;10.50;;;4.80;59.60;;;;;;5010518;28;20509;-71
2020/12/30 01:04:04;;;;;;;16.75;10.23;;;4.80;59.40;;;;;;5010382;28;20431;-72
2020/12/30 01:06:30;;;;;;;16.52;10.13;;;4.80;59.70;;;;;;5010660;28;20408;-72
2020/12/30 01:08:55;;;;;;;18.60;12.02;;;4.90;59.20;;;;;;5010176;28;20912;-71
2020/12/30 01:11:30;;;;;;;13.30;9.43;;;4.90;59.00;;;;;;5010371;28;20493;-71
2020/12/30 01:13:57;;;;;;;12.02;8.63;;;4.90;59.10;;;;;;5010240;28;20424;-71
2020/12/30 01:16:23;;;;;;;15.70;10.18;;;5.00;58.30;;;;;;5010435;28;20905;-71
2020/12/30 01:18:49;;;;;;;14.32;10.20;;;4.90;58.00;;;;;;5010120;28;20393;-71
2020/12/30 01:21:15;;;;;;;13.55;9.48;;;5.00;58.90;;;;;;5010071;28;20736;-71
2020/12/30 01:23:41;;;;;;;13.55;9.52;;;4.90;58.60;;;;;;5010136;28;20388;-71
2020/12/30 01:26:07;;;;;;;18.08;10.50;;;4.80;58.60;;;;;;5010425;28;20384;-72
2020/12/30 01:28:33;;;;;;;14.48;8.65;;;4.80;59.00;;;;;;5010175;28;20384;-72
2020/12/30 01:30:58;;;;;;;14.65;9.50;;;4.80;59.40;;;;;;5009966;28;20464;-72
2020/12/30 01:33:24;;;;;;;15.13;9.52;;;4.80;59.80;;;;;;5010158;28;20742;-73
2020/12/30 01:35:50;;;;;;;18.20;10.30;;;4.80;59.40;;;;;;5010143;28;20459;-72
2020/12/30 01:38:16;;;;;;;17.27;9.90;;;4.80;59.30;;;;;;5010037;28;20385;-73
2020/12/30 01:40:41;;;;;;;21.10;10.55;;;4.80;60.00;;;;;;5009816;28;20412;-71
2020/12/30 01:43:08;;;;;;;14.80;9.27;;;4.90;59.80;;;;;;5010307;28;20420;-71
2020/12/30 01:45:33;;;;;;;17.25;10.02;;;4.90;59.50;;;;;;5013683;28;20385;-71
2020/12/30 01:48:15;;;;;;;15.47;10.20;;;4.90;60.30;;;;;;5013687;28;20749;-73
2020/12/30 01:50:41;;;;;;;15.48;10.20;;;4.80;60.90;;;;;;5013147;28;20411;-71
2020/12/30 01:53:08;;;;;;;17.73;9.60;;;4.70;61.60;;;;;;5013250;28;20794;-71
2020/12/30 01:55:39;;;;;;;15.43;10.73;;;4.90;61.50;;;;;;5013422;28;20385;-71
2020/12/30 01:58:06;;;;;;;15.05;10.00;;;4.80;61.70;;;;;;5013323;28;20421;-71
2020/12/30 02:00:32;;;;;;;17.77;10.25;;;4.80;62.10;;;;;;5012911;28;20424;-71
2020/12/30 02:03:01;;;;;;;18.40;10.90;;;4.80;62.90;;;;;;5013152;28;20384;-71
2020/12/30 02:05:34;;;;;;;18.45;10.50;;;4.80;63.50;;;;;;5013214;28;20758;-72
2020/12/30 02:08:04;;;;;;;12.48;9.48;;;4.80;63.90;;;;;;4994162;28;20444;-70
2020/12/30 02:10:29;;;;;;;14.18;10.00;;;4.80;64.30;;;;;;4993329;28;20906;-71
2020/12/30 02:12:56;;;;;;;15.13;10.47;;;4.80;64.50;;;;;;4993739;28;20403;-71
2020/12/30 02:15:22;;;;;;;18.42;11.48;;;5.00;63.30;;;;;;4993595;28;20390;-70
2020/12/30 02:17:48;;;;;;;20.97;11.00;;;5.00;63.00;;;;;;4993501;28;20751;-71
2020/12/30 02:20:13;;;;;;;13.90;10.43;;;5.00;62.50;;;;;;4993476;28;20406;-72
2020/12/30 02:22:42;;;;;;;18.00;10.65;;;5.00;63.20;;;;;;4994097;28;20391;-72
2020/12/30 02:25:07;;;;;;;16.65;10.30;;;5.10;62.80;;;;;;4994020;28;20721;-72
2020/12/30 02:27:33;;;;;;;19.30;11.90;;;5.00;63.10;;;;;;4994205;28;20417;-72
2020/12/30 02:29:58;;;;;;;17.67;10.67;;;5.00;63.40;;;;;;4993577;28;20759;-71
2020/12/30 02:32:24;;;;;;;16.50;11.37;;;5.00;63.80;;;;;;4999018;28;20393;-72
2020/12/30 02:34:49;;;;;;;16.67;10.90;;;5.10;63.50;;;;;;5013626;28;20464;-73
2020/12/30 02:37:15;;;;;;;18.70;10.82;;;5.10;63.80;;;;;;5013274;28;20403;-71
2020/12/30 02:39:40;;;;;;;15.02;10.73;;;5.10;63.90;;;;;;5012673;28;20409;-72
2020/12/30 02:42:06;;;;;;;18.60;11.52;;;5.10;63.80;;;;;;5012699;28;20941;-71
2020/12/30 02:44:31;;;;;;;19.40;11.50;;;5.10;64.10;;;;;;5012831;28;20427;-72
2020/12/30 02:46:57;;;;;;;14.95;11.07;;;5.10;64.00;;;;;;5012695;28;20432;-72
2020/12/30 02:49:22;;;;;;;19.92;12.68;;;5.00;64.30;;;;;;5012229;28;20491;-72
2020/12/30 02:51:48;;;;;;;17.65;11.40;;;5.00;64.50;;;;;;5012438;28;20428;-71
2020/12/30 02:54:14;;;;;;;16.55;11.93;;;5.00;65.20;;;;;;5012102;28;20931;-71
2020/12/30 02:56:39;;;;;;;20.45;12.43;;;4.90;65.50;;;;;;5012425;28;20385;-71
2020/12/30 02:59:05;;;;;;;18.00;12.60;;;4.90;65.80;;;;;;5011982;28;20438;-72
2020/12/30 03:01:30;;;;;;;21.67;13.40;;;4.70;66.40;;;;;;5012185;28;20503;-72
2020/12/30 03:03:56;;;;;;;25.00;12.80;;;4.70;67.60;;;;;;5012117;28;20388;-72
2020/12/30 03:06:25;;;;;;;16.57;11.70;;;4.60;68.50;;;;;;5012016;28;20392;-71
2020/12/30 03:08:51;;;;;;;19.35;12.23;;;4.60;68.60;;;;;;5011789;28;20479;-72
2020/12/30 03:11:17;;;;;;;19.05;11.98;;;4.60;68.90;;;;;;5011939;28;20482;-71
2020/12/30 03:13:42;;;;;;;15.48;11.25;;;4.70;68.60;;;;;;4994418;28;20429;-72
2020/12/30 03:16:08;;;;;;;19.85;12.35;;;4.70;69.20;;;;;;5011822;28;20451;-72
2020/12/30 03:18:33;;;;;;;18.33;11.90;;;4.70;68.80;;;;;;5011958;28;20403;-71
2020/12/30 03:21:00;;;;;;;17.20;12.07;;;4.70;69.60;;;;;;5011529;28;20440;-71
2020/12/30 03:23:25;;;;;;;16.85;11.50;;;4.70;69.50;;;;;;5011783;28;20380;-71
2020/12/30 03:25:51;;;;;;;17.02;11.63;;;4.60;69.70;;;;;;5011774;28;20381;-71
2020/12/30 03:28:16;;;;;;;17.88;11.80;;;4.70;69.90;;;;;;4994053;28;20389;-71
2020/12/30 03:30:42;;;;;;;18.42;11.90;;;4.70;69.70;;;;;;5011405;28;20389;-71
2020/12/30 03:33:07;;;;;;;21.87;12.87;;;4.70;70.10;;;;;;5011357;28;20878;-72
2020/12/30 03:35:33;;;;;;;19.00;12.13;;;4.70;69.40;;;;;;5011763;28;20388;-70
2020/12/30 03:37:59;;;;;;;19.17;12.80;;;4.50;69.90;;;;;;5011424;28;20874;-73
2020/12/30 03:40:24;;;;;;;20.53;11.80;;;4.40;70.40;;;;;;5011149;28;20487;-72
2020/12/30 03:42:50;;;;;;;19.80;12.30;;;4.30;71.70;;;;;;5011401;28;20396;-70
2020/12/30 03:45:16;;;;;;;20.63;12.93;;;4.20;73.00;;;;;;5011277;28;20449;-71
2020/12/30 03:47:41;;;;;;;19.38;12.90;;;4.10;74.10;;;;;;5011430;28;20381;-73
2020/12/30 03:50:07;;;;;;;16.92;12.40;;;4.10;74.50;;;;;;5011057;28;20429;-71
2020/12/30 03:52:33;;;;;;;21.67;13.10;;;4.10;74.80;;;;;;5013711;28;20397;-71
2020/12/30 03:54:58;;;;;;;19.07;13.13;;;4.00;75.30;;;;;;5014968;28;20408;-71
2020/12/30 03:57:24;;;;;;;20.02;12.70;;;3.90;76.20;;;;;;5015495;28;20389;-71
2020/12/30 03:59:49;;;;;;;21.52;13.55;;;3.90;77.00;;;;;;5014351;28;20401;-71
2020/12/30 04:02:15;;;;;;;20.95;13.90;;;3.90;77.50;;;;;;5014418;28;20397;-72
2020/12/30 04:04:41;;;;;;;20.83;13.00;;;3.80;78.10;;;;;;5014932;28;20427;-71
2020/12/30 04:07:06;;;;;;;21.47;14.03;;;3.70;79.40;;;;;;5002948;28;20421;-70
2020/12/30 04:09:32;;;;;;;19.30;13.53;;;3.70;80.10;;;;;;4995147;28;20390;-72
2020/12/30 04:11:57;;;;;;;21.40;14.20;;;3.80;80.70;;;;;;4995593;28;20443;-71
2020/12/30 04:14:23;;;;;;;22.63;14.17;;;3.80;80.10;;;;;;4995684;28;20402;-70
2020/12/30 04:16:48;;;;;;;22.00;13.60;;;3.80;79.20;;;;;;4995301;28;20398;-71
2020/12/30 04:19:14;;;;;;;24.63;14.60;;;3.80;79.40;;;;;;4994903;28;20699;-71
2020/12/30 04:21:39;;;;;;;21.70;14.40;;;3.80;78.60;;;;;;4994940;28;20429;-72
2020/12/30 04:24:05;;;;;;;21.92;14.07;;;3.80;78.40;;;;;;4994838;28;20398;-71
2020/12/30 04:26:30;;;;;;;25.77;14.60;;;3.70;78.50;;;;;;4994486;28;20375;-71
2020/12/30 04:28:56;;;;;;;23.63;14.25;;;3.60;79.20;;;;;;4994058;28;20453;-72
2020/12/30 04:31:22;;;;;;;21.02;13.18;;;3.60;79.90;;;;;;4993878;28;20390;-71
2020/12/30 04:33:47;;;;;;;21.80;14.27;;;3.70;80.60;;;;;;5010469;28;20385;-71
2020/12/30 04:36:14;;;;;;;22.37;14.60;;;3.60;80.50;;;;;;5013600;28;20392;-71
2020/12/30 04:38:40;;;;;;;24.40;15.77;;;3.60;80.90;;;;;;5013238;28;20465;-70
2020/12/30 04:41:11;;;;;;;27.60;14.70;;;3.50;82.50;;;;;;5013107;28;20411;-71
2020/12/30 04:43:38;;;;;;;20.70;14.52;;;3.60;82.40;;;;;;5015327;28;20393;-71
2020/12/30 04:46:04;;;;;;;23.60;15.15;;;3.60;82.80;;;;;;5015826;28;20396;-72
2020/12/30 04:48:33;;;;;;;27.95;15.50;;;3.60;82.60;;;;;;5016339;28;20878;-70
2020/12/30 04:50:59;;;;;;;20.45;14.60;;;3.60;82.80;;;;;;5015503;28;20421;-71
2020/12/30 04:53:24;;;;;;;26.27;15.17;;;3.60;82.90;;;;;;5013858;28;20450;-71
2020/12/30 04:55:51;;;;;;;24.25;14.52;;;3.70;83.40;;;;;;4996124;28;20900;-72
2020/12/30 04:58:18;;;;;;;25.98;16.45;;;3.80;83.70;;;;;;5013926;28;20392;-70
2020/12/30 05:00:45;;;;;;;26.80;15.52;;;4.00;81.20;;;;;;4996548;28;20409;-71
2020/12/30 05:03:12;;;;;;;25.80;15.70;;;4.00;80.50;;;;;;5013477;28;20383;-71
2020/12/30 05:05:39;;;;;;;25.73;15.60;;;4.20;77.40;;;;;;5014026;28;20889;-72
2020/12/30 05:08:14;;;;;;;27.23;15.65;;;4.20;76.70;;;;;;4994153;28;20424;-71
2020/12/30 05:10:44;;;;;;;21.75;14.70;;;4.30;76.00;;;;;;4993814;28;20394;-71
2020/12/30 05:13:09;;;;;;;20.45;13.95;;;4.40;75.30;;;;;;4993706;28;20477;-71
2020/12/30 05:15:35;;;;;;;23.13;14.70;;;4.40;74.60;;;;;;4994023;28;20433;-70
2020/12/30 05:18:06;;;;;;;22.42;14.93;;;4.40;74.30;;;;;;4993757;28;20390;-72
2020/12/30 05:20:36;;;;;;;20.00;14.18;;;4.50;73.50;;;;;;4997595;28;20414;-71
2020/12/30 05:23:08;;;;;;;25.42;15.50;;;4.50;72.20;;;;;;4995067;28;20397;-70
2020/12/30 05:25:38;;;;;;;21.95;14.60;;;4.50;72.50;;;;;;4994429;28;20398;-71
2020/12/30 05:28:09;;;;;;;24.92;14.93;;;4.50;72.40;;;;;;4993733;28;20391;-72
2020/12/30 05:30:36;;;;;;;21.58;14.15;;;4.50;71.70;;;;;;4994050;28;20393;-72
2020/12/30 05:33:04;;;;;;;22.45;14.52;;;4.60;71.50;;;;;;5004092;28;20392;-72
2020/12/30 05:35:31;;;;;;;20.98;14.57;;;4.50;70.50;;;;;;5013779;28;20396;-74
2020/12/30 05:37:57;;;;;;;23.83;14.75;;;4.50;71.60;;;;;;5013693;28;20813;-71
2020/12/30 05:40:25;;;;;;;24.33;14.18;;;4.40;71.90;;;;;;5013260;28;20412;-71
2020/12/30 05:42:51;;;;;;;22.63;15.68;;;4.40;72.30;;;;;;5013640;28;20476;-73
2020/12/30 05:45:19;;;;;;;22.20;14.30;;;4.50;73.10;;;;;;5013305;28;20377;-72
2020/12/30 05:47:45;;;;;;;22.38;15.02;;;4.60;73.60;;;;;;5013310;28;20734;-71
2020/12/30 05:50:13;;;;;;;24.25;14.80;;;4.70;70.30;;;;;;5013087;28;20436;-71
2020/12/30 05:52:40;;;;;;;23.90;14.32;;;4.80;68.50;;;;;;5013123;28;20404;-72
2020/12/30 05:55:09;;;;;;;24.45;14.80;;;4.80;68.40;;;;;;5013554;28;20492;-72
2020/12/30 05:57:37;;;;;;;27.30;15.13;;;4.80;68.60;;;;;;5013538;28;20384;-71
2020/12/30 06:00:13;;;;;;;22.70;14.95;;;4.80;68.80;;;;;;5012834;28;20455;-71
2020/12/30 06:02:43;;;;;;;25.48;14.95;;;4.80;68.00;;;;;;4995697;28;20381;-71
2020/12/30 06:05:24;;;;;;;24.20;15.50;;;4.90;67.40;;;;;;5012938;28;20404;-71
2020/12/30 06:07:51;;;;;;;24.08;16.27;;;4.80;67.10;;;;;;5012752;28;20798;-73
2020/12/30 06:10:22;;;;;;;27.90;16.63;;;4.80;68.00;;;;;;5012580;28;20407;-72
2020/12/30 06:12:47;;;;;;;24.50;15.20;;;4.90;66.60;;;;;;4995879;28;20468;-72
2020/12/30 06:15:18;;;;;;;26.13;15.80;;;5.00;66.50;;;;;;5012766;28;20484;-76
2020/12/30 06:18:04;;;;;;;23.83;15.00;;;5.00;64.70;;;;;;5013043;28;20960;-73
2020/12/30 06:20:38;;;;;;;25.55;16.13;;;5.00;64.90;;;;;;5012700;28;20408;-73
2020/12/30 06:23:09;;;;;;;27.92;16.33;;;5.00;64.10;;;;;;5012704;28;20391;-74
2020/12/30 06:25:42;;;;;;;27.48;16.17;;;5.00;64.00;;;;;;5012798;28;20412;-74
2020/12/30 06:28:13;;;;;;;25.57;16.63;;;5.00;64.10;;;;;;4994583;28;20875;-74
2020/12/30 06:30:41;;;;;;;28.70;16.63;;;5.10;63.50;;;;;;5011895;28;20491;-73
2020/12/30 06:33:08;;;;;;;30.10;16.65;;;5.00;63.80;;;;;;5012634;28;20439;-74
2020/12/30 06:35:35;;;;;;;29.45;17.50;;;5.10;63.80;;;;;;5012493;28;20956;-74
2020/12/30 06:38:23;;;;;;;29.40;17.40;;;5.10;62.60;;;;;;5012504;28;20397;-74
2020/12/30 06:40:55;;;;;;;28.33;17.90;;;5.10;62.80;;;;;;5012120;28;20880;-74
2020/12/30 06:43:40;;;;;;;32.05;18.25;;;5.10;62.30;;;;;;5012337;28;20381;-73
2020/12/30 06:46:09;;;;;;;32.92;18.55;;;5.10;62.80;;;;;;5011956;28;20795;-74
2020/12/30 06:48:55;;;;;;;30.92;17.40;;;5.00;63.80;;;;;;5012161;28;20446;-73
2020/12/30 06:51:21;;;;;;;30.58;18.30;;;5.00;63.80;;;;;;5011944;28;20389;-74
2020/12/30 06:53:51;;;;;;;30.13;17.10;;;5.00;64.60;;;;;;5012332;28;20527;-74
2020/12/30 06:56:45;;;;;;;32.33;18.70;;;5.00;64.90;;;;;;5013285;28;20416;-74
2020/12/30 06:59:24;;;;;;;30.48;18.70;;;5.00;64.60;;;;;;5016270;28;20389;-74
2020/12/30 07:02:03;;;;;;;30.48;18.88;;;4.90;64.90;;;;;;5015754;28;20420;-74
2020/12/30 07:04:36;;;;;;;32.17;18.40;;;4.90;65.60;;;;;;5015472;28;20557;-73
2020/12/30 07:07:18;;;;;;;30.77;18.15;;;5.00;64.40;;;;;;5003910;28;20412;-74
2020/12/30 07:09:44;;;;;;;29.20;18.40;;;5.00;63.70;;;;;;4996153;28;20374;-74
2020/12/30 07:12:09;;;;;;;31.90;17.50;;;5.00;63.20;;;;;;4996050;28;20868;-74
2020/12/30 07:14:37;;;;;;;31.07;18.93;;;5.00;63.30;;;;;;4993714;28;20394;-74
2020/12/30 07:17:05;;;;;;;30.50;18.00;;;5.00;62.50;;;;;;4992156;28;20411;-73
2020/12/30 07:19:32;;;;;;;31.88;18.23;;;5.10;62.00;;;;;;4991856;28;20383;-72
2020/12/30 07:22:03;;;;;;;31.13;18.40;;;5.10;62.00;;;;;;4991890;28;20477;-73
2020/12/30 07:24:51;;;;;;;31.50;19.20;;;5.10;61.90;;;;;;4992015;28;20378;-72
2020/12/30 07:27:17;;;;;;;34.37;18.90;;;5.10;62.80;;;;;;4991434;28;20394;-73
2020/12/30 07:29:47;;;;;;;32.10;19.00;;;5.00;62.10;;;;;;4991675;28;20391;-73
2020/12/30 07:32:14;;;;;;;30.50;18.67;;;5.00;62.20;;;;;;4995475;28;20900;-72
2020/12/30 07:34:48;;;;;;;31.58;18.73;;;5.10;61.70;;;;;;4993939;28;20396;-72
2020/12/30 07:37:15;;;;;;;31.17;18.45;;;5.20;60.50;;;;;;5011539;28;20413;-73
2020/12/30 07:39:43;;;;;;;33.28;18.33;;;5.10;61.10;;;;;;5012825;28;20384;-72
2020/12/30 07:42:12;;;;;;;36.57;19.57;;;5.10;61.10;;;;;;5016070;28;20380;-73
2020/12/30 07:44:49;;;;;;;29.80;18.90;;;5.00;61.40;;;;;;5017315;28;20388;-73
2020/12/30 07:47:15;;;;;;;28.20;17.65;;;5.00;62.30;;;;;;4999337;28;20393;-71
2020/12/30 07:49:41;;;;;;;31.50;19.40;;;5.10;61.20;;;;;;5015680;28;20392;-73
2020/12/30 07:52:07;;;;;;;30.60;18.40;;;5.10;61.00;;;;;;5013350;28;20415;-72
2020/12/30 07:54:32;;;;;;;27.35;17.55;;;5.10;60.20;;;;;;5013850;28;20389;-74
2020/12/30 07:57:07;;;;;;;32.35;18.20;;;5.20;59.90;;;;;;5013617;28;20463;-72
2020/12/30 07:59:34;;;;;;;32.17;18.75;;;5.20;59.40;;;;;;5013734;28;20886;-73
2020/12/30 08:02:04;;;;;;;30.33;18.60;;;5.20;60.50;;;;;;5013742;28;20385;-74
2020/12/30 08:04:32;;;;;;;34.42;18.50;;;5.20;60.80;;;;;;5014043;28;20420;-73
2020/12/30 08:06:58;;;;;;;28.85;17.95;;;5.20;61.30;;;;;;5013304;28;20397;-73
2020/12/30 08:09:30;;;;;;;32.88;17.88;;;5.20;61.00;;;;;;5014227;28;20443;-72
2020/12/30 08:11:57;;;;;;;27.23;17.55;;;5.30;60.20;;;;;;5016715;28;20435;-73
2020/12/30 08:14:23;;;;;;;32.42;17.88;;;5.30;60.30;;;;;;5016368;28;20407;-74
2020/12/30 08:17:09;;;;;;;34.70;18.67;;;5.30;60.20;;;;;;5012829;28;20392;-74
2020/12/30 08:19:37;;;;;;;35.55;19.50;;;5.30;60.30;;;;;;5029102;28;20391;-73
2020/12/30 08:22:17;;;;;;;32.73;19.20;;;5.30;60.30;;;;;;5012821;28;20379;-72
2020/12/30 08:24:47;;;;;;;31.08;19.23;;;5.40;59.50;;;;;;5030618;28;20481;-72
2020/12/30 08:27:15;;;;;;;29.67;19.30;;;5.40;59.00;;;;;;5016953;28;20441;-73
2020/12/30 08:29:43;;;;;;;36.88;19.40;;;5.50;59.50;;;;;;5010484;28;20396;-73
2020/12/30 08:32:33;;;;;;;38.72;22.27;;;5.40;59.20;;;;;;5010625;28;20381;-72
2020/12/30 08:35:20;;;;;;;34.53;20.55;;;5.50;59.30;;;;;;5011375;28;20755;-73
2020/12/30 08:37:50;;;;;;;34.33;19.13;;;5.50;58.50;;;;;;5010733;28;20385;-72
2020/12/30 08:40:24;;;;;;;34.85;20.10;;;5.50;58.40;;;;;;5013760;28;20410;-73
2020/12/30 08:42:53;;;;;;;32.90;19.10;;;5.70;57.50;;;;;;5003521;28;20873;-76
2020/12/30 08:45:28;;;;;;;32.90;20.65;;;5.60;57.30;;;;;;5011107;28;20806;-75
2020/12/30 08:47:55;;;;;;;34.47;19.75;;;5.50;58.40;;;;;;5016070;28;20401;-73
2020/12/30 08:50:25;;;;;;;38.47;19.85;;;5.60;58.30;;;;;;5014369;28;20393;-73
2020/12/30 08:52:51;;;;;;;39.20;20.13;;;5.50;59.00;;;;;;5013900;28;20827;-74
2020/12/30 08:55:18;;;;;;;34.63;20.20;;;5.50;59.40;;;;;;5016521;28;20450;-73
2020/12/30 08:57:45;;;;;;;33.53;21.20;;;5.50;60.00;;;;;;5018792;28;20409;-72
2020/12/30 09:00:35;;;;;;;36.40;20.52;;;5.60;60.70;;;;;;5034528;28;20446;-73
2020/12/30 09:03:30;;;;;;;34.42;20.60;;;5.60;61.70;;;;;;4997247;28;20398;-74
2020/12/30 09:05:59;;;;;;;35.15;20.63;;;5.60;63.20;;;;;;4982984;28;20741;-73
2020/12/30 09:08:29;;;;;;;35.25;21.42;;;5.70;62.70;;;;;;5016427;28;20420;-73
2020/12/30 09:10:55;;;;;;;40.45;21.67;;;5.60;63.60;;;;;;5015781;28;20388;-72
2020/12/30 09:13:24;;;;;;;38.20;22.23;;;5.50;64.40;;;;;;5028078;28;20498;-73
2020/12/30 09:15:57;;;;;;;34.87;21.03;;;5.40;65.20;;;;;;5026967;28;20492;-74
2020/12/30 09:18:24;;;;;;;36.83;21.95;;;5.40;65.10;;;;;;5014610;28;20407;-73
2020/12/30 09:20:50;;;;;;;39.42;21.33;;;5.40;66.00;;;;;;5013398;28;20930;-72
2020/12/30 09:23:20;;;;;;;35.13;20.13;;;5.30;66.50;;;;;;5014390;28;20395;-72
2020/12/30 09:25:45;;;;;;;38.33;21.38;;;5.30;67.50;;;;;;5021326;28;20517;-73
2020/12/30 09:28:19;;;;;;;37.10;20.58;;;5.30;66.50;;;;;;5033015;28;20421;-72
2020/12/30 09:30:45;;;;;;;38.85;21.75;;;5.40;65.80;;;;;;5031563;28;20395;-73
2020/12/30 09:33:16;;;;;;;36.60;21.20;;;5.30;66.20;;;;;;5021956;28;20403;-72
2020/12/30 09:35:43;;;;;;;39.20;21.00;;;5.20;67.30;;;;;;5013668;28;20527;-72
2020/12/30 09:38:09;;;;;;;38.30;22.85;;;5.30;68.70;;;;;;5013545;28;20442;-73
2020/12/30 09:40:42;;;;;;;35.00;20.70;;;5.30;69.00;;;;;;5018466;28;20815;-72
2020/12/30 09:43:18;;;;;;;36.30;21.40;;;5.50;68.80;;;;;;5036252;28;20924;-73
2020/12/30 09:45:45;;;;;;;37.15;21.00;;;5.60;67.30;;;;;;5023660;28;20857;-73
2020/12/30 09:48:12;;;;;;;34.08;20.90;;;5.60;65.30;;;;;;5020213;28;20387;-73
2020/12/30 09:50:38;;;;;;;37.38;20.90;;;5.70;63.80;;;;;;5022403;28;20818;-74
2020/12/30 09:53:04;;;;;;;39.72;21.45;;;5.80;64.20;;;;;;5018377;28;20408;-73
2020/12/30 09:55:29;;;;;;;35.80;21.70;;;5.80;63.20;;;;;;5013931;28;20389;-72
2020/12/30 09:57:55;;;;;;;37.00;21.33;;;5.80;63.50;;;;;;5014092;28;20389;-74
2020/12/30 10:00:21;;;;;;;35.80;20.25;;;5.80;63.20;;;;;;5013618;28;20413;-74
2020/12/30 10:02:47;;;;;;;39.95;21.52;;;5.90;62.50;;;;;;5005900;28;20996;-76
2020/12/30 10:05:12;;;;;;;33.27;20.30;;;6.00;61.20;;;;;;5012912;28;20397;-73
2020/12/30 10:07:38;;;;;;;35.87;21.60;;;6.00;59.90;;;;;;4997670;28;20848;-73
2020/12/30 10:10:04;;;;;;;35.37;20.80;;;6.10;59.60;;;;;;4995943;28;20477;-72
2020/12/30 10:12:29;;;;;;;32.85;20.85;;;6.20;59.80;;;;;;5013863;28;20392;-73
2020/12/30 10:14:55;;;;;;;36.75;20.20;;;6.20;57.70;;;;;;5014311;28;20412;-73
2020/12/30 10:17:21;;;;;;;32.75;20.23;;;6.50;57.20;;;;;;4996357;28;20913;-73
2020/12/30 10:19:47;;;;;;;32.45;19.80;;;6.40;56.20;;;;;;5014781;28;20393;-73
2020/12/30 10:22:13;;;;;;;34.67;20.27;;;6.40;56.60;;;;;;5020413;28;20397;-72
2020/12/30 10:24:44;;;;;;;36.03;20.58;;;6.50;56.20;;;;;;4993077;28;20394;-71
2020/12/30 10:27:10;;;;;;;37.97;21.17;;;6.50;56.60;;;;;;5013043;28;20512;-74
2020/12/30 10:29:36;;;;;;;33.50;20.95;;;6.50;55.90;;;;;;5034437;28;20451;-72
2020/12/30 10:32:01;;;;;;;33.38;19.70;;;6.50;55.70;;;;;;5016750;28;20424;-73
2020/12/30 10:34:27;;;;;;;34.47;20.75;;;6.40;56.40;;;;;;5014849;28;20405;-73
2020/12/30 10:36:53;;;;;;;31.85;19.90;;;6.40;56.70;;;;;;5012271;28;20416;-75
2020/12/30 10:39:18;;;;;;;31.17;20.50;;;6.50;56.90;;;;;;5012613;28;20420;-73
2020/12/30 10:41:44;;;;;;;33.60;20.30;;;6.60;55.80;;;;;;5013189;28;20416;-72
2020/12/30 10:44:09;;;;;;;33.67;20.60;;;6.60;55.80;;;;;;5014518;28;20424;-72
2020/12/30 10:46:35;;;;;;;37.30;20.20;;;6.70;56.00;;;;;;5032192;28;20395;-74
2020/12/30 10:49:01;;;;;;;29.80;19.47;;;6.70;54.20;;;;;;5030969;28;20457;-73
2020/12/30 10:51:26;;;;;;;35.17;20.27;;;6.70;55.10;;;;;;5013693;28;20400;-75
2020/12/30 10:53:52;;;;;;;33.80;19.47;;;6.70;55.80;;;;;;5013478;28;20444;-72
2020/12/30 10:56:17;;;;;;;34.27;19.37;;;6.80;55.20;;;;;;5031520;28;20398;-73
2020/12/30 10:58:43;;;;;;;29.50;19.23;;;6.80;55.20;;;;;;5030455;28;20811;-74
2020/12/30 11:01:10;;;;;;;33.63;19.30;;;6.90;54.60;;;;;;5031712;28;20446;-73
2020/12/30 11:03:36;;;;;;;29.65;19.45;;;6.90;54.60;;;;;;5031989;28;20391;-73
2020/12/30 11:06:02;;;;;;;34.22;19.30;;;6.90;54.50;;;;;;5012618;28;20397;-73
2020/12/30 11:08:28;;;;;;;32.60;19.40;;;6.90;55.40;;;;;;5011440;28;20389;-74
2020/12/30 11:10:57;;;;;;;28.10;17.80;;;6.90;54.30;;;;;;5011887;28;20404;-73
2020/12/30 11:13:23;;;;;;;29.95;17.95;;;6.90;54.00;;;;;;5013070;28;20396;-73
2020/12/30 11:15:49;;;;;;;32.28;19.00;;;6.80;55.30;;;;;;5017884;28;20829;-72
2020/12/30 11:18:14;;;;;;;30.30;18.38;;;6.90;54.20;;;;;;5011574;28;20392;-73
2020/12/30 11:20:40;;;;;;;30.00;18.02;;;6.90;53.40;;;;;;5011382;28;20500;-73
2020/12/30 11:23:05;;;;;;;30.95;18.20;;;6.90;54.10;;;;;;5011024;28;20428;-73
2020/12/30 11:25:31;;;;;;;29.30;16.53;;;6.90;54.30;;;;;;5005933;28;20393;-73
2020/12/30 11:27:56;;;;;;;34.90;17.63;;;6.90;53.60;;;;;;5011030;28;20870;-73
2020/12/30 11:30:22;;;;;;;29.42;17.67;;;6.90;54.20;;;;;;5018943;28;20399;-73
2020/12/30 11:32:48;;;;;;;33.28;18.08;;;7.00;54.30;;;;;;5022027;28;20747;-73
2020/12/30 11:35:13;;;;;;;25.75;15.57;;;7.10;52.30;;;;;;5003508;28;20463;-73
2020/12/30 11:37:39;;;;;;;26.95;16.75;;;7.10;52.00;;;;;;5011185;28;20399;-73
2020/12/30 11:40:06;;;;;;;28.83;17.38;;;7.10;52.50;;;;;;5010502;28;20416;-74
2020/12/30 11:42:31;;;;;;;29.27;16.73;;;7.10;52.80;;;;;;5010999;28;20747;-73
2020/12/30 11:44:57;;;;;;;28.20;16.80;;;7.00;52.60;;;;;;5027699;28;20406;-74
2020/12/30 11:47:24;;;;;;;24.83;16.33;;;7.00;52.40;;;;;;5030524;28;20403;-74
2020/12/30 11:49:50;;;;;;;29.50;16.23;;;7.10;52.10;;;;;;5029385;28;20399;-73
2020/12/30 11:52:15;;;;;;;26.98;16.75;;;7.10;52.10;;;;;;5012313;28;20404;-74
2020/12/30 11:54:41;;;;;;;28.38;16.42;;;7.00;52.50;;;;;;5024847;28;20399;-72
2020/12/30 11:57:06;;;;;;;28.50;16.57;;;7.00;52.60;;;;;;5012857;28;20391;-74
2020/12/30 11:59:32;;;;;;;30.33;15.80;;;7.00;52.60;;;;;;5017203;28;20523;-74
2020/12/30 12:01:57;;;;;;;31.03;16.43;;;7.10;52.00;;;;;;5011013;28;20490;-74
2020/12/30 12:04:23;;;;;;;27.67;16.20;;;7.10;52.40;;;;;;5030357;28;20467;-71
2020/12/30 12:06:49;;;;;;;25.95;16.55;;;7.10;51.80;;;;;;5020684;28;20455;-73
2020/12/30 12:09:15;;;;;;;27.20;17.15;;;7.10;52.10;;;;;;5010295;28;20407;-73
2020/12/30 12:11:41;;;;;;;34.60;16.75;;;7.00;52.90;;;;;;5013450;28;20583;-73
2020/12/30 12:14:07;;;;;;;30.30;17.85;;;7.00;53.70;;;;;;5001712;28;20819;-73
2020/12/30 12:16:33;;;;;;;37.88;17.83;;;7.00;53.50;;;;;;4990856;28;20401;-73
2020/12/30 12:18:59;;;;;;;29.42;16.40;;;7.10;53.50;;;;;;5009983;28;20391;-72
2020/12/30 12:21:24;;;;;;;29.47;17.07;;;7.10;53.40;;;;;;5009560;28;20420;-73
2020/12/30 12:23:50;;;;;;;28.03;16.30;;;7.20;53.10;;;;;;5005337;28;20390;-73
2020/12/30 12:26:23;;;;;;;31.87;16.60;;;7.20;52.30;;;;;;5006234;28;20404;-73
2020/12/30 12:28:49;;;;;;;29.83;17.27;;;7.20;52.10;;;;;;5008647;28;20422;-72
2020/12/30 12:31:15;;;;;;;30.93;17.33;;;7.30;52.20;;;;;;5011970;28;20389;-73
2020/12/30 12:33:40;;;;;;;30.95;18.00;;;7.30;52.10;;;;;;5005977;28;20898;-72
2020/12/30 12:36:24;;;;;;;29.25;18.23;;;7.30;51.60;;;;;;4998419;28;20394;-72
2020/12/30 12:38:49;;;;;;;28.58;17.20;;;7.40;50.40;;;;;;5029800;28;20379;-72
2020/12/30 12:41:16;;;;;;;29.73;16.60;;;7.30;51.20;;;;;;5027145;28;20416;-73